sensor_id;sensor_type;location;lat;lon;timestamp;P1;durP1;ratioP1;P2;durP2;ratioP2
66585;SDS011;53444;45.822;16.092;2022-12-11T00:02:07;3.78;;;1.77;;
66585;SDS011;53444;45.822;16.092;2022-12-11T00:04:34;3.10;;;1.30;;
66585;SDS011;53444;45.822;16.092;2022-12-11T00:07:00;3.05;;;1.20;;
66585;SDS011;53444;45.822;16.092;2022-12-11T00:09:27;3.55;;;1.75;;
66585;SDS011;53444;45.822;16.092;2022-12-11T00:11:55;3.42;;;1.42;;
66585;SDS011;53444;45.822;16.092;2022-12-11T00:14:22;2.90;;;1.60;;
66585;SDS011;53444;45.822;16.092;2022-12-11T00:16:48;3.13;;;1.20;;
66585;SDS011;53444;45.822;16.092;2022-12-11T00:19:15;3.90;;;1.60;;
66585;SDS011;53444;45.822;16.092;2022-12-11T00:21:42;4.50;;;1.48;;
66585;SDS011;53444;45.822;16.092;2022-12-11T00:24:08;2.92;;;1.42;;
66585;SDS011;53444;45.822;16.092;2022-12-11T00:26:35;3.47;;;2.25;;
66585;SDS011;53444;45.822;16.092;2022-12-11T00:29:03;3.53;;;1.77;;
66585;SDS011;53444;45.822;16.092;2022-12-11T00:31:32;3.63;;;1.52;;
66585;SDS011;53444;45.822;16.092;2022-12-11T00:33:59;2.80;;;1.75;;
66585;SDS011;53444;45.822;16.092;2022-12-11T00:36:26;3.85;;;1.63;;
66585;SDS011;53444;45.822;16.092;2022-12-11T00:38:53;3.95;;;2.90;;
66585;SDS011;53444;45.822;16.092;2022-12-11T00:41:20;3.63;;;2.13;;
66585;SDS011;53444;45.822;16.092;2022-12-11T00:43:47;4.10;;;1.67;;
66585;SDS011;53444;45.822;16.092;2022-12-11T00:46:15;3.05;;;1.67;;
66585;SDS011;53444;45.822;16.092;2022-12-11T00:48:42;2.53;;;1.40;;
66585;SDS011;53444;45.822;16.092;2022-12-11T00:51:10;3.17;;;1.90;;
66585;SDS011;53444;45.822;16.092;2022-12-11T00:53:37;4.40;;;1.27;;
66585;SDS011;53444;45.822;16.092;2022-12-11T00:56:08;3.92;;;1.70;;
66585;SDS011;53444;45.822;16.092;2022-12-11T00:58:35;2.97;;;1.65;;
66585;SDS011;53444;45.822;16.092;2022-12-11T01:01:04;1.90;;;1.00;;
66585;SDS011;53444;45.822;16.092;2022-12-11T01:03:33;3.60;;;1.70;;
66585;SDS011;53444;45.822;16.092;2022-12-11T01:06:00;3.97;;;1.87;;
66585;SDS011;53444;45.822;16.092;2022-12-11T01:08:26;3.35;;;1.50;;
66585;SDS011;53444;45.822;16.092;2022-12-11T01:10:59;5.43;;;2.55;;
66585;SDS011;53444;45.822;16.092;2022-12-11T01:13:25;22.50;;;7.28;;
66585;SDS011;53444;45.822;16.092;2022-12-11T01:15:52;23.42;;;7.03;;
66585;SDS011;53444;45.822;16.092;2022-12-11T01:18:19;4.03;;;2.20;;
66585;SDS011;53444;45.822;16.092;2022-12-11T01:20:47;4.72;;;2.00;;
66585;SDS011;53444;45.822;16.092;2022-12-11T01:23:13;3.78;;;2.10;;
66585;SDS011;53444;45.822;16.092;2022-12-11T01:25:40;3.72;;;2.22;;
66585;SDS011;53444;45.822;16.092;2022-12-11T01:28:07;4.05;;;2.00;;
66585;SDS011;53444;45.822;16.092;2022-12-11T01:30:35;2.53;;;1.10;;
66585;SDS011;53444;45.822;16.092;2022-12-11T01:33:02;3.13;;;1.58;;
66585;SDS011;53444;45.822;16.092;2022-12-11T01:35:29;4.68;;;2.35;;
66585;SDS011;53444;45.822;16.092;2022-12-11T01:37:57;4.47;;;1.80;;
66585;SDS011;53444;45.822;16.092;2022-12-11T01:40:24;3.22;;;2.30;;
66585;SDS011;53444;45.822;16.092;2022-12-11T01:42:51;3.80;;;1.60;;
66585;SDS011;53444;45.822;16.092;2022-12-11T01:45:28;4.53;;;1.85;;
66585;SDS011;53444;45.822;16.092;2022-12-11T01:48:04;5.43;;;2.78;;
66585;SDS011;53444;45.822;16.092;2022-12-11T01:50:35;5.22;;;3.13;;
66585;SDS011;53444;45.822;16.092;2022-12-11T01:53:07;5.55;;;3.47;;
66585;SDS011;53444;45.822;16.092;2022-12-11T01:55:37;7.30;;;3.67;;
66585;SDS011;53444;45.822;16.092;2022-12-11T01:58:05;6.68;;;3.80;;
66585;SDS011;53444;45.822;16.092;2022-12-11T02:00:33;5.65;;;3.42;;
66585;SDS011;53444;45.822;16.092;2022-12-11T02:03:00;6.32;;;3.63;;
66585;SDS011;53444;45.822;16.092;2022-12-11T02:05:27;7.82;;;3.53;;
66585;SDS011;53444;45.822;16.092;2022-12-11T02:07:54;6.33;;;3.07;;
66585;SDS011;53444;45.822;16.092;2022-12-11T02:10:27;3.58;;;2.08;;
66585;SDS011;53444;45.822;16.092;2022-12-11T02:13:03;5.60;;;2.92;;
66585;SDS011;53444;45.822;16.092;2022-12-11T02:15:35;6.55;;;3.40;;
66585;SDS011;53444;45.822;16.092;2022-12-11T02:18:11;5.47;;;2.72;;
66585;SDS011;53444;45.822;16.092;2022-12-11T02:20:43;5.80;;;2.37;;
66585;SDS011;53444;45.822;16.092;2022-12-11T02:23:26;6.43;;;3.53;;
66585;SDS011;53444;45.822;16.092;2022-12-11T02:26:14;6.93;;;4.13;;
66585;SDS011;53444;45.822;16.092;2022-12-11T02:28:52;5.97;;;3.33;;
66585;SDS011;53444;45.822;16.092;2022-12-11T02:31:21;5.60;;;3.53;;
66585;SDS011;53444;45.822;16.092;2022-12-11T02:33:54;7.63;;;3.23;;
66585;SDS011;53444;45.822;16.092;2022-12-11T02:36:27;8.43;;;3.28;;
66585;SDS011;53444;45.822;16.092;2022-12-11T02:38:58;6.63;;;3.50;;
66585;SDS011;53444;45.822;16.092;2022-12-11T02:41:27;5.32;;;2.95;;
66585;SDS011;53444;45.822;16.092;2022-12-11T02:43:56;6.13;;;3.47;;
66585;SDS011;53444;45.822;16.092;2022-12-11T02:46:24;6.50;;;3.43;;
66585;SDS011;53444;45.822;16.092;2022-12-11T02:48:52;5.93;;;3.17;;
66585;SDS011;53444;45.822;16.092;2022-12-11T02:51:22;6.25;;;2.92;;
66585;SDS011;53444;45.822;16.092;2022-12-11T02:53:51;5.45;;;2.83;;
66585;SDS011;53444;45.822;16.092;2022-12-11T02:56:23;6.03;;;3.30;;
66585;SDS011;53444;45.822;16.092;2022-12-11T02:59:00;5.70;;;2.60;;
66585;SDS011;53444;45.822;16.092;2022-12-11T03:01:31;5.93;;;2.63;;
66585;SDS011;53444;45.822;16.092;2022-12-11T03:03:58;6.18;;;3.30;;
66585;SDS011;53444;45.822;16.092;2022-12-11T03:06:26;7.18;;;3.83;;
66585;SDS011;53444;45.822;16.092;2022-12-11T03:09:01;5.50;;;3.20;;
66585;SDS011;53444;45.822;16.092;2022-12-11T03:11:29;5.53;;;2.97;;
66585;SDS011;53444;45.822;16.092;2022-12-11T03:13:55;6.95;;;3.45;;
66585;SDS011;53444;45.822;16.092;2022-12-11T03:16:26;6.93;;;3.10;;
66585;SDS011;53444;45.822;16.092;2022-12-11T03:19:01;4.68;;;2.55;;
66585;SDS011;53444;45.822;16.092;2022-12-11T03:21:39;5.90;;;2.85;;
66585;SDS011;53444;45.822;16.092;2022-12-11T03:24:11;6.17;;;3.20;;
66585;SDS011;53444;45.822;16.092;2022-12-11T03:26:45;6.97;;;3.35;;
66585;SDS011;53444;45.822;16.092;2022-12-11T03:29:18;6.30;;;3.42;;
66585;SDS011;53444;45.822;16.092;2022-12-11T03:31:50;4.95;;;3.00;;
66585;SDS011;53444;45.822;16.092;2022-12-11T03:34:22;5.15;;;2.60;;
66585;SDS011;53444;45.822;16.092;2022-12-11T03:36:54;5.00;;;2.50;;
66585;SDS011;53444;45.822;16.092;2022-12-11T03:39:22;7.15;;;2.85;;
66585;SDS011;53444;45.822;16.092;2022-12-11T03:41:52;6.32;;;3.47;;
66585;SDS011;53444;45.822;16.092;2022-12-11T03:44:20;5.15;;;3.08;;
66585;SDS011;53444;45.822;16.092;2022-12-11T03:46:50;4.78;;;2.67;;
66585;SDS011;53444;45.822;16.092;2022-12-11T03:49:21;14.57;;;3.60;;
66585;SDS011;53444;45.822;16.092;2022-12-11T03:51:52;5.60;;;3.13;;
66585;SDS011;53444;45.822;16.092;2022-12-11T03:54:21;7.15;;;3.50;;
66585;SDS011;53444;45.822;16.092;2022-12-11T03:56:49;6.55;;;2.63;;
66585;SDS011;53444;45.822;16.092;2022-12-11T03:59:18;5.45;;;2.75;;
66585;SDS011;53444;45.822;16.092;2022-12-11T04:01:45;4.40;;;2.23;;
66585;SDS011;53444;45.822;16.092;2022-12-11T04:04:13;5.78;;;3.03;;
66585;SDS011;53444;45.822;16.092;2022-12-11T04:06:40;4.95;;;2.53;;
66585;SDS011;53444;45.822;16.092;2022-12-11T04:09:06;5.25;;;2.72;;
66585;SDS011;53444;45.822;16.092;2022-12-11T04:11:33;5.35;;;3.20;;
66585;SDS011;53444;45.822;16.092;2022-12-11T04:14:00;5.67;;;2.83;;
66585;SDS011;53444;45.822;16.092;2022-12-11T04:16:44;7.15;;;3.55;;
66585;SDS011;53444;45.822;16.092;2022-12-11T04:19:11;6.47;;;3.42;;
66585;SDS011;53444;45.822;16.092;2022-12-11T04:21:56;5.28;;;2.70;;
66585;SDS011;53444;45.822;16.092;2022-12-11T04:24:40;5.13;;;2.90;;
66585;SDS011;53444;45.822;16.092;2022-12-11T04:27:07;6.90;;;3.17;;
66585;SDS011;53444;45.822;16.092;2022-12-11T04:29:34;5.82;;;2.80;;
66585;SDS011;53444;45.822;16.092;2022-12-11T04:32:00;8.43;;;3.65;;
66585;SDS011;53444;45.822;16.092;2022-12-11T04:34:27;5.53;;;3.10;;
66585;SDS011;53444;45.822;16.092;2022-12-11T04:36:54;6.70;;;3.80;;
66585;SDS011;53444;45.822;16.092;2022-12-11T04:39:22;6.93;;;3.50;;
66585;SDS011;53444;45.822;16.092;2022-12-11T04:41:48;5.38;;;3.17;;
66585;SDS011;53444;45.822;16.092;2022-12-11T04:44:15;5.22;;;3.33;;
66585;SDS011;53444;45.822;16.092;2022-12-11T04:46:41;7.40;;;3.42;;
66585;SDS011;53444;45.822;16.092;2022-12-11T04:49:08;7.25;;;3.10;;
66585;SDS011;53444;45.822;16.092;2022-12-11T04:51:35;5.07;;;2.53;;
66585;SDS011;53444;45.822;16.092;2022-12-11T04:54:01;6.18;;;3.05;;
66585;SDS011;53444;45.822;16.092;2022-12-11T04:56:29;4.72;;;2.20;;
66585;SDS011;53444;45.822;16.092;2022-12-11T04:58:56;4.40;;;2.42;;
66585;SDS011;53444;45.822;16.092;2022-12-11T05:01:22;5.47;;;3.60;;
66585;SDS011;53444;45.822;16.092;2022-12-11T05:03:49;7.67;;;3.33;;
66585;SDS011;53444;45.822;16.092;2022-12-11T05:06:16;8.00;;;4.30;;
66585;SDS011;53444;45.822;16.092;2022-12-11T05:08:43;5.85;;;3.15;;
66585;SDS011;53444;45.822;16.092;2022-12-11T05:11:11;6.53;;;3.17;;
66585;SDS011;53444;45.822;16.092;2022-12-11T05:13:40;6.75;;;3.95;;
66585;SDS011;53444;45.822;16.092;2022-12-11T05:16:08;9.20;;;4.60;;
66585;SDS011;53444;45.822;16.092;2022-12-11T05:18:35;6.03;;;3.58;;
66585;SDS011;53444;45.822;16.092;2022-12-11T05:21:03;9.27;;;4.10;;
66585;SDS011;53444;45.822;16.092;2022-12-11T05:23:31;7.72;;;3.80;;
66585;SDS011;53444;45.822;16.092;2022-12-11T05:25:59;6.53;;;3.92;;
66585;SDS011;53444;45.822;16.092;2022-12-11T05:28:28;8.93;;;4.70;;
66585;SDS011;53444;45.822;16.092;2022-12-11T05:30:58;8.18;;;3.53;;
66585;SDS011;53444;45.822;16.092;2022-12-11T05:33:28;8.18;;;4.22;;
66585;SDS011;53444;45.822;16.092;2022-12-11T05:35:55;9.52;;;4.30;;
66585;SDS011;53444;45.822;16.092;2022-12-11T05:38:22;9.05;;;4.47;;
66585;SDS011;53444;45.822;16.092;2022-12-11T05:40:54;7.60;;;3.90;;
66585;SDS011;53444;45.822;16.092;2022-12-11T05:43:22;8.15;;;4.20;;
66585;SDS011;53444;45.822;16.092;2022-12-11T05:45:48;9.20;;;4.88;;
66585;SDS011;53444;45.822;16.092;2022-12-11T05:48:16;7.03;;;3.83;;
66585;SDS011;53444;45.822;16.092;2022-12-11T05:50:43;10.30;;;5.55;;
66585;SDS011;53444;45.822;16.092;2022-12-11T05:53:10;10.10;;;4.37;;
66585;SDS011;53444;45.822;16.092;2022-12-11T05:55:36;9.02;;;5.03;;
66585;SDS011;53444;45.822;16.092;2022-12-11T05:58:03;8.82;;;3.35;;
66585;SDS011;53444;45.822;16.092;2022-12-11T06:00:29;10.23;;;5.53;;
66585;SDS011;53444;45.822;16.092;2022-12-11T06:02:56;10.20;;;4.50;;
66585;SDS011;53444;45.822;16.092;2022-12-11T06:05:24;10.70;;;5.33;;
66585;SDS011;53444;45.822;16.092;2022-12-11T06:07:50;12.60;;;5.53;;
66585;SDS011;53444;45.822;16.092;2022-12-11T06:10:17;12.38;;;5.65;;
66585;SDS011;53444;45.822;16.092;2022-12-11T06:12:44;10.20;;;5.50;;
66585;SDS011;53444;45.822;16.092;2022-12-11T06:15:10;9.55;;;4.43;;
66585;SDS011;53444;45.822;16.092;2022-12-11T06:17:37;16.93;;;6.70;;
66585;SDS011;53444;45.822;16.092;2022-12-11T06:20:04;14.23;;;6.15;;
66585;SDS011;53444;45.822;16.092;2022-12-11T06:22:32;13.02;;;5.28;;
66585;SDS011;53444;45.822;16.092;2022-12-11T06:24:59;10.20;;;5.10;;
66585;SDS011;53444;45.822;16.092;2022-12-11T06:27:26;10.27;;;5.18;;
66585;SDS011;53444;45.822;16.092;2022-12-11T06:29:52;11.00;;;5.67;;
66585;SDS011;53444;45.822;16.092;2022-12-11T06:32:19;10.93;;;4.80;;
66585;SDS011;53444;45.822;16.092;2022-12-11T06:34:46;11.93;;;5.68;;
66585;SDS011;53444;45.822;16.092;2022-12-11T06:37:13;10.90;;;5.32;;
66585;SDS011;53444;45.822;16.092;2022-12-11T06:39:41;14.82;;;6.60;;
66585;SDS011;53444;45.822;16.092;2022-12-11T06:42:07;12.50;;;6.27;;
66585;SDS011;53444;45.822;16.092;2022-12-11T06:44:34;11.63;;;6.00;;
66585;SDS011;53444;45.822;16.092;2022-12-11T06:47:02;11.63;;;6.55;;
66585;SDS011;53444;45.822;16.092;2022-12-11T06:49:29;13.63;;;6.05;;
66585;SDS011;53444;45.822;16.092;2022-12-11T06:51:56;13.68;;;6.22;;
66585;SDS011;53444;45.822;16.092;2022-12-11T06:54:24;13.70;;;6.27;;
66585;SDS011;53444;45.822;16.092;2022-12-11T06:56:52;13.48;;;6.00;;
66585;SDS011;53444;45.822;16.092;2022-12-11T06:59:19;14.05;;;7.35;;
66585;SDS011;53444;45.822;16.092;2022-12-11T07:01:46;14.70;;;7.53;;
66585;SDS011;53444;45.822;16.092;2022-12-11T07:04:12;12.77;;;6.35;;
66585;SDS011;53444;45.822;16.092;2022-12-11T07:06:39;11.50;;;5.77;;
66585;SDS011;53444;45.822;16.092;2022-12-11T07:09:06;10.68;;;5.85;;
66585;SDS011;53444;45.822;16.092;2022-12-11T07:11:36;16.85;;;5.68;;
66585;SDS011;53444;45.822;16.092;2022-12-11T07:14:04;10.82;;;6.40;;
66585;SDS011;53444;45.822;16.092;2022-12-11T07:16:31;12.25;;;6.95;;
66585;SDS011;53444;45.822;16.092;2022-12-11T07:18:58;17.10;;;7.83;;
66585;SDS011;53444;45.822;16.092;2022-12-11T07:21:30;14.63;;;7.28;;
66585;SDS011;53444;45.822;16.092;2022-12-11T07:23:59;22.15;;;11.02;;
66585;SDS011;53444;45.822;16.092;2022-12-11T07:26:26;21.45;;;10.35;;
66585;SDS011;53444;45.822;16.092;2022-12-11T07:28:55;18.92;;;9.95;;
66585;SDS011;53444;45.822;16.092;2022-12-11T07:31:25;16.30;;;8.37;;
66585;SDS011;53444;45.822;16.092;2022-12-11T07:33:53;12.98;;;7.28;;
66585;SDS011;53444;45.822;16.092;2022-12-11T07:36:20;14.00;;;7.13;;
66585;SDS011;53444;45.822;16.092;2022-12-11T07:38:49;30.65;;;12.32;;
66585;SDS011;53444;45.822;16.092;2022-12-11T07:41:16;55.00;;;21.27;;
66585;SDS011;53444;45.822;16.092;2022-12-11T07:43:43;31.10;;;15.03;;
66585;SDS011;53444;45.822;16.092;2022-12-11T07:46:10;38.10;;;15.15;;
66585;SDS011;53444;45.822;16.092;2022-12-11T07:48:40;22.60;;;7.82;;
66585;SDS011;53444;45.822;16.092;2022-12-11T07:51:15;14.43;;;6.88;;
66585;SDS011;53444;45.822;16.092;2022-12-11T07:53:43;11.05;;;5.57;;
66585;SDS011;53444;45.822;16.092;2022-12-11T07:56:11;10.10;;;5.60;;
66585;SDS011;53444;45.822;16.092;2022-12-11T07:58:39;12.43;;;6.03;;
66585;SDS011;53444;45.822;16.092;2022-12-11T08:01:09;11.30;;;5.90;;
66585;SDS011;53444;45.822;16.092;2022-12-11T08:03:37;13.35;;;6.57;;
66585;SDS011;53444;45.822;16.092;2022-12-11T08:06:06;15.13;;;7.72;;
66585;SDS011;53444;45.822;16.092;2022-12-11T08:08:33;21.70;;;10.13;;
66585;SDS011;53444;45.822;16.092;2022-12-11T08:11:03;24.33;;;11.63;;
66585;SDS011;53444;45.822;16.092;2022-12-11T08:13:31;34.35;;;14.38;;
66585;SDS011;53444;45.822;16.092;2022-12-11T08:15:58;35.85;;;16.10;;
66585;SDS011;53444;45.822;16.092;2022-12-11T08:18:28;24.88;;;11.48;;
66585;SDS011;53444;45.822;16.092;2022-12-11T08:20:55;14.67;;;5.47;;
66585;SDS011;53444;45.822;16.092;2022-12-11T08:23:24;10.32;;;5.10;;
66585;SDS011;53444;45.822;16.092;2022-12-11T08:25:56;10.25;;;5.68;;
66585;SDS011;53444;45.822;16.092;2022-12-11T08:28:23;12.50;;;6.57;;
66585;SDS011;53444;45.822;16.092;2022-12-11T08:30:49;12.20;;;6.78;;
66585;SDS011;53444;45.822;16.092;2022-12-11T08:33:16;12.53;;;6.73;;
66585;SDS011;53444;45.822;16.092;2022-12-11T08:35:44;11.55;;;5.90;;
66585;SDS011;53444;45.822;16.092;2022-12-11T08:38:11;9.95;;;5.85;;
66585;SDS011;53444;45.822;16.092;2022-12-11T08:40:39;17.80;;;7.50;;
66585;SDS011;53444;45.822;16.092;2022-12-11T08:43:07;13.65;;;7.75;;
66585;SDS011;53444;45.822;16.092;2022-12-11T08:45:34;15.23;;;6.57;;
66585;SDS011;53444;45.822;16.092;2022-12-11T08:48:01;14.40;;;6.68;;
66585;SDS011;53444;45.822;16.092;2022-12-11T08:50:27;10.85;;;6.15;;
66585;SDS011;53444;45.822;16.092;2022-12-11T08:52:54;16.73;;;8.93;;
66585;SDS011;53444;45.822;16.092;2022-12-11T08:55:21;11.32;;;6.45;;
66585;SDS011;53444;45.822;16.092;2022-12-11T08:57:49;12.67;;;6.63;;
66585;SDS011;53444;45.822;16.092;2022-12-11T09:00:16;14.48;;;7.15;;
66585;SDS011;53444;45.822;16.092;2022-12-11T09:02:43;13.32;;;7.88;;
66585;SDS011;53444;45.822;16.092;2022-12-11T09:05:10;11.98;;;6.25;;
66585;SDS011;53444;45.822;16.092;2022-12-11T09:07:36;15.60;;;7.63;;
66585;SDS011;53444;45.822;16.092;2022-12-11T09:10:03;9.30;;;5.40;;
66585;SDS011;53444;45.822;16.092;2022-12-11T09:12:31;7.85;;;4.28;;
66585;SDS011;53444;45.822;16.092;2022-12-11T09:15:00;7.03;;;4.68;;
66585;SDS011;53444;45.822;16.092;2022-12-11T09:17:26;10.48;;;5.25;;
66585;SDS011;53444;45.822;16.092;2022-12-11T09:19:53;11.38;;;6.05;;
66585;SDS011;53444;45.822;16.092;2022-12-11T09:22:20;7.77;;;4.33;;
66585;SDS011;53444;45.822;16.092;2022-12-11T09:24:46;7.00;;;4.45;;
66585;SDS011;53444;45.822;16.092;2022-12-11T09:27:13;8.38;;;4.78;;
66585;SDS011;53444;45.822;16.092;2022-12-11T09:29:40;8.68;;;4.93;;
66585;SDS011;53444;45.822;16.092;2022-12-11T09:32:08;11.43;;;5.95;;
66585;SDS011;53444;45.822;16.092;2022-12-11T09:34:35;7.70;;;4.43;;
66585;SDS011;53444;45.822;16.092;2022-12-11T09:37:01;10.40;;;5.28;;
66585;SDS011;53444;45.822;16.092;2022-12-11T09:39:30;7.15;;;4.28;;
66585;SDS011;53444;45.822;16.092;2022-12-11T09:42:01;8.63;;;5.05;;
66585;SDS011;53444;45.822;16.092;2022-12-11T09:44:40;4.80;;;2.75;;
66585;SDS011;53444;45.822;16.092;2022-12-11T09:47:14;7.67;;;3.50;;
66585;SDS011;53444;45.822;16.092;2022-12-11T09:49:48;7.38;;;3.42;;
66585;SDS011;53444;45.822;16.092;2022-12-11T09:52:19;6.32;;;3.47;;
66585;SDS011;53444;45.822;16.092;2022-12-11T09:54:55;10.10;;;4.88;;
66585;SDS011;53444;45.822;16.092;2022-12-11T09:57:30;9.45;;;4.68;;
66585;SDS011;53444;45.822;16.092;2022-12-11T10:00:04;6.87;;;3.47;;
66585;SDS011;53444;45.822;16.092;2022-12-11T10:02:41;7.15;;;3.75;;
66585;SDS011;53444;45.822;16.092;2022-12-11T10:05:23;11.00;;;5.68;;
66585;SDS011;53444;45.822;16.092;2022-12-11T10:07:55;5.13;;;3.38;;
66585;SDS011;53444;45.822;16.092;2022-12-11T10:10:31;8.30;;;3.83;;
66585;SDS011;53444;45.822;16.092;2022-12-11T10:13:09;10.90;;;5.07;;
66585;SDS011;53444;45.822;16.092;2022-12-11T10:15:50;8.82;;;3.92;;
66585;SDS011;53444;45.822;16.092;2022-12-11T10:18:22;7.47;;;3.83;;
66585;SDS011;53444;45.822;16.092;2022-12-11T10:20:51;7.50;;;3.97;;
66585;SDS011;53444;45.822;16.092;2022-12-11T10:23:21;9.68;;;4.32;;
66585;SDS011;53444;45.822;16.092;2022-12-11T10:25:52;9.80;;;5.20;;
66585;SDS011;53444;45.822;16.092;2022-12-11T10:28:25;8.30;;;3.40;;
66585;SDS011;53444;45.822;16.092;2022-12-11T10:30:54;5.80;;;3.10;;
66585;SDS011;53444;45.822;16.092;2022-12-11T10:33:28;7.18;;;3.33;;
66585;SDS011;53444;45.822;16.092;2022-12-11T10:35:59;13.27;;;5.95;;
66585;SDS011;53444;45.822;16.092;2022-12-11T10:38:27;13.20;;;6.37;;
66585;SDS011;53444;45.822;16.092;2022-12-11T10:40:56;8.45;;;4.82;;
66585;SDS011;53444;45.822;16.092;2022-12-11T10:43:33;9.38;;;4.75;;
66585;SDS011;53444;45.822;16.092;2022-12-11T10:46:01;8.68;;;4.28;;
66585;SDS011;53444;45.822;16.092;2022-12-11T10:48:30;7.10;;;3.55;;
66585;SDS011;53444;45.822;16.092;2022-12-11T10:50:59;5.63;;;3.00;;
66585;SDS011;53444;45.822;16.092;2022-12-11T10:53:28;9.40;;;4.45;;
66585;SDS011;53444;45.822;16.092;2022-12-11T10:55:56;7.25;;;4.18;;
66585;SDS011;53444;45.822;16.092;2022-12-11T10:58:24;6.35;;;3.28;;
66585;SDS011;53444;45.822;16.092;2022-12-11T11:01:05;6.38;;;3.47;;
66585;SDS011;53444;45.822;16.092;2022-12-11T11:03:40;5.13;;;3.27;;
66585;SDS011;53444;45.822;16.092;2022-12-11T11:06:19;6.65;;;3.95;;
66585;SDS011;53444;45.822;16.092;2022-12-11T11:08:49;5.97;;;3.35;;
66585;SDS011;53444;45.822;16.092;2022-12-11T11:11:21;7.15;;;3.42;;
66585;SDS011;53444;45.822;16.092;2022-12-11T11:13:51;7.72;;;3.55;;
66585;SDS011;53444;45.822;16.092;2022-12-11T11:16:21;6.80;;;4.03;;
66585;SDS011;53444;45.822;16.092;2022-12-11T11:18:51;9.63;;;4.55;;
66585;SDS011;53444;45.822;16.092;2022-12-11T11:21:20;8.85;;;4.22;;
66585;SDS011;53444;45.822;16.092;2022-12-11T11:23:48;7.70;;;4.45;;
66585;SDS011;53444;45.822;16.092;2022-12-11T11:26:15;7.78;;;3.92;;
66585;SDS011;53444;45.822;16.092;2022-12-11T11:28:46;6.23;;;3.60;;
66585;SDS011;53444;45.822;16.092;2022-12-11T11:31:15;6.13;;;3.70;;
66585;SDS011;53444;45.822;16.092;2022-12-11T11:33:45;7.80;;;3.83;;
66585;SDS011;53444;45.822;16.092;2022-12-11T11:36:24;8.10;;;4.07;;
66585;SDS011;53444;45.822;16.092;2022-12-11T11:39:01;11.65;;;5.40;;
66585;SDS011;53444;45.822;16.092;2022-12-11T11:41:42;9.67;;;4.90;;
66585;SDS011;53444;45.822;16.092;2022-12-11T11:44:13;10.15;;;4.35;;
66585;SDS011;53444;45.822;16.092;2022-12-11T11:46:43;9.95;;;5.05;;
66585;SDS011;53444;45.822;16.092;2022-12-11T11:49:16;9.25;;;4.72;;
66585;SDS011;53444;45.822;16.092;2022-12-11T11:51:50;8.55;;;4.03;;
66585;SDS011;53444;45.822;16.092;2022-12-11T11:54:26;10.87;;;4.60;;
66585;SDS011;53444;45.822;16.092;2022-12-11T11:56:57;8.68;;;4.57;;
66585;SDS011;53444;45.822;16.092;2022-12-11T11:59:27;6.57;;;3.75;;
66585;SDS011;53444;45.822;16.092;2022-12-11T12:01:57;7.35;;;3.85;;
66585;SDS011;53444;45.822;16.092;2022-12-11T12:04:32;8.50;;;3.90;;
66585;SDS011;53444;45.822;16.092;2022-12-11T12:07:06;7.93;;;3.57;;
66585;SDS011;53444;45.822;16.092;2022-12-11T12:09:44;8.30;;;3.92;;
66585;SDS011;53444;45.822;16.092;2022-12-11T12:12:20;8.02;;;4.13;;
66585;SDS011;53444;45.822;16.092;2022-12-11T12:15:00;7.10;;;4.20;;
66585;SDS011;53444;45.822;16.092;2022-12-11T12:17:35;8.38;;;3.83;;
66585;SDS011;53444;45.822;16.092;2022-12-11T12:20:13;7.53;;;4.43;;
66585;SDS011;53444;45.822;16.092;2022-12-11T12:23:05;8.93;;;3.72;;
66585;SDS011;53444;45.822;16.092;2022-12-11T12:25:55;8.02;;;3.90;;
66585;SDS011;53444;45.822;16.092;2022-12-11T12:28:29;9.45;;;5.03;;
66585;SDS011;53444;45.822;16.092;2022-12-11T12:31:06;10.45;;;6.10;;
66585;SDS011;53444;45.822;16.092;2022-12-11T12:33:47;9.67;;;5.03;;
66585;SDS011;53444;45.822;16.092;2022-12-11T12:36:24;11.13;;;5.75;;
66585;SDS011;53444;45.822;16.092;2022-12-11T12:39:15;10.38;;;5.82;;
66585;SDS011;53444;45.822;16.092;2022-12-11T12:41:54;9.70;;;5.57;;
66585;SDS011;53444;45.822;16.092;2022-12-11T12:44:29;13.38;;;6.55;;
66585;SDS011;53444;45.822;16.092;2022-12-11T12:47:11;13.67;;;7.00;;
66585;SDS011;53444;45.822;16.092;2022-12-11T12:49:43;12.05;;;7.15;;
66585;SDS011;53444;45.822;16.092;2022-12-11T12:52:16;8.75;;;4.65;;
66585;SDS011;53444;45.822;16.092;2022-12-11T12:54:51;7.95;;;4.80;;
66585;SDS011;53444;45.822;16.092;2022-12-11T12:57:41;12.18;;;6.25;;
66585;SDS011;53444;45.822;16.092;2022-12-11T13:00:12;9.23;;;5.10;;
66585;SDS011;53444;45.822;16.092;2022-12-11T13:02:54;10.75;;;6.13;;
66585;SDS011;53444;45.822;16.092;2022-12-11T13:05:26;16.38;;;5.93;;
66585;SDS011;53444;45.822;16.092;2022-12-11T13:07:58;9.50;;;6.43;;
66585;SDS011;53444;45.822;16.092;2022-12-11T13:10:35;10.68;;;6.68;;
66585;SDS011;53444;45.822;16.092;2022-12-11T13:13:04;11.27;;;5.70;;
66585;SDS011;53444;45.822;16.092;2022-12-11T13:15:51;14.30;;;7.70;;
66585;SDS011;53444;45.822;16.092;2022-12-11T13:18:32;19.35;;;9.43;;
66585;SDS011;53444;45.822;16.092;2022-12-11T13:24:05;15.65;;;8.35;;
66585;SDS011;53444;45.822;16.092;2022-12-11T13:26:52;13.90;;;7.87;;
66585;SDS011;53444;45.822;16.092;2022-12-11T13:29:28;13.02;;;7.00;;
66585;SDS011;53444;45.822;16.092;2022-12-11T13:32:01;11.93;;;6.75;;
66585;SDS011;53444;45.822;16.092;2022-12-11T13:34:31;10.73;;;5.88;;
66585;SDS011;53444;45.822;16.092;2022-12-11T13:37:01;12.98;;;6.43;;
66585;SDS011;53444;45.822;16.092;2022-12-11T13:39:33;12.83;;;6.70;;
66585;SDS011;53444;45.822;16.092;2022-12-11T13:47:44;17.77;;;9.70;;
66585;SDS011;53444;45.822;16.092;2022-12-11T13:50:13;14.02;;;8.02;;
66585;SDS011;53444;45.822;16.092;2022-12-11T13:52:52;13.47;;;6.80;;
66585;SDS011;53444;45.822;16.092;2022-12-11T13:55:29;11.60;;;6.13;;
66585;SDS011;53444;45.822;16.092;2022-12-11T13:58:14;15.45;;;7.35;;
66585;SDS011;53444;45.822;16.092;2022-12-11T14:00:51;14.82;;;8.63;;
66585;SDS011;53444;45.822;16.092;2022-12-11T14:03:26;13.85;;;8.85;;
66585;SDS011;53444;45.822;16.092;2022-12-11T14:06:00;14.30;;;7.17;;
66585;SDS011;53444;45.822;16.092;2022-12-11T14:08:29;15.55;;;7.93;;
66585;SDS011;53444;45.822;16.092;2022-12-11T14:11:05;17.10;;;8.98;;
66585;SDS011;53444;45.822;16.092;2022-12-11T14:13:45;20.23;;;10.88;;
66585;SDS011;53444;45.822;16.092;2022-12-11T14:16:18;19.65;;;10.60;;
66585;SDS011;53444;45.822;16.092;2022-12-11T14:18:47;30.27;;;14.53;;
66585;SDS011;53444;45.822;16.092;2022-12-11T14:21:18;20.40;;;10.68;;
66585;SDS011;53444;45.822;16.092;2022-12-11T14:23:51;17.35;;;10.77;;
66585;SDS011;53444;45.822;16.092;2022-12-11T14:26:23;18.17;;;9.38;;
66585;SDS011;53444;45.822;16.092;2022-12-11T14:28:58;21.15;;;10.50;;
66585;SDS011;53444;45.822;16.092;2022-12-11T14:31:28;15.73;;;8.43;;
66585;SDS011;53444;45.822;16.092;2022-12-11T14:34:00;20.35;;;11.07;;
66585;SDS011;53444;45.822;16.092;2022-12-11T14:36:30;21.23;;;11.00;;
66585;SDS011;53444;45.822;16.092;2022-12-11T14:39:01;16.13;;;9.48;;
66585;SDS011;53444;45.822;16.092;2022-12-11T14:41:33;19.88;;;9.65;;
66585;SDS011;53444;45.822;16.092;2022-12-11T14:44:11;15.77;;;8.37;;
66585;SDS011;53444;45.822;16.092;2022-12-11T14:46:42;13.75;;;7.85;;
66585;SDS011;53444;45.822;16.092;2022-12-11T14:49:14;13.07;;;6.78;;
66585;SDS011;53444;45.822;16.092;2022-12-11T14:51:46;15.70;;;8.15;;
66585;SDS011;53444;45.822;16.092;2022-12-11T14:54:15;14.43;;;8.35;;
66585;SDS011;53444;45.822;16.092;2022-12-11T14:56:45;16.10;;;8.33;;